sensor_id;sensor_type;location;lat;lon;timestamp;pressure;altitude;pressure_sealevel;temperature;humidity
43281;BME280;62175;49.416;8.690;2022-10-16T00:01:16;100268.24;;;19.32;68.76
43281;BME280;62175;49.416;8.690;2022-10-16T00:03:44;100269.75;;;19.12;68.65
43281;BME280;62175;49.416;8.690;2022-10-16T00:06:12;100268.17;;;19.07;68.40
43281;BME280;62175;49.416;8.690;2022-10-16T00:08:39;100269.11;;;19.30;68.42
43281;BME280;62175;49.416;8.690;2022-10-16T00:11:09;100269.32;;;19.31;68.60
43281;BME280;62175;49.416;8.690;2022-10-16T00:13:39;100268.47;;;19.34;68.65
43281;BME280;62175;49.416;8.690;2022-10-16T00:16:07;100273.17;;;19.24;68.88
43281;BME280;62175;49.416;8.690;2022-10-16T00:18:34;100271.36;;;19.09;68.61
43281;BME280;62175;49.416;8.690;2022-10-16T00:21:03;100272.09;;;19.01;68.50
43281;BME280;62175;49.416;8.690;2022-10-16T00:23:32;100270.75;;;18.95;68.60
43281;BME280;62175;49.416;8.690;2022-10-16T00:26:01;100267.82;;;18.84;68.30
43281;BME280;62175;49.416;8.690;2022-10-16T00:28:30;100270.83;;;19.26;68.38
43281;BME280;62175;49.416;8.690;2022-10-16T00:30:57;100270.61;;;19.26;68.71
43281;BME280;62175;49.416;8.690;2022-10-16T00:33:25;100271.83;;;19.31;68.66
43281;BME280;62175;49.416;8.690;2022-10-16T00:35:51;100266.77;;;19.30;68.62
43281;BME280;62175;49.416;8.690;2022-10-16T00:38:18;100270.54;;;19.37;68.35
43281;BME280;62175;49.416;8.690;2022-10-16T00:40:45;100269.04;;;19.35;68.48
43281;BME280;62175;49.416;8.690;2022-10-16T00:43:14;100267.97;;;18.90;68.67
43281;BME280;62175;49.416;8.690;2022-10-16T00:45:59;100275.12;;;19.32;68.53
43281;BME280;62175;49.416;8.690;2022-10-16T00:48:26;100280.00;;;19.40;68.66
43281;BME280;62175;49.416;8.690;2022-10-16T00:50:54;100279.70;;;18.85;68.48
43281;BME280;62175;49.416;8.690;2022-10-16T00:53:22;100278.13;;;19.39;68.70
43281;BME280;62175;49.416;8.690;2022-10-16T00:55:50;100282.07;;;19.29;68.22
43281;BME280;62175;49.416;8.690;2022-10-16T00:58:17;100291.74;;;19.38;68.39
43281;BME280;62175;49.416;8.690;2022-10-16T01:00:44;100292.68;;;18.95;68.67
43281;BME280;62175;49.416;8.690;2022-10-16T01:03:29;100297.73;;;19.27;68.64
43281;BME280;62175;49.416;8.690;2022-10-16T01:06:35;100295.16;;;19.32;68.59
43281;BME280;62175;49.416;8.690;2022-10-16T01:09:15;100287.13;;;19.35;68.65
43281;BME280;62175;49.416;8.690;2022-10-16T01:11:49;100281.40;;;19.34;68.64
43281;BME280;62175;49.416;8.690;2022-10-16T01:14:23;100290.17;;;19.16;68.39
43281;BME280;62175;49.416;8.690;2022-10-16T01:16:56;100286.90;;;19.33;68.29
43281;BME280;62175;49.416;8.690;2022-10-16T01:19:40;100284.66;;;19.42;68.38
43281;BME280;62175;49.416;8.690;2022-10-16T01:22:11;100281.67;;;19.16;68.34
43281;BME280;62175;49.416;8.690;2022-10-16T01:24:40;100283.08;;;19.36;68.66
43281;BME280;62175;49.416;8.690;2022-10-16T01:27:12;100289.80;;;18.82;68.32
43281;BME280;62175;49.416;8.690;2022-10-16T01:29:48;100295.75;;;18.92;68.81
43281;BME280;62175;49.416;8.690;2022-10-16T01:32:22;100290.96;;;19.10;68.57
43281;BME280;62175;49.416;8.690;2022-10-16T01:34:52;100292.25;;;19.40;68.02
43281;BME280;62175;49.416;8.690;2022-10-16T01:37:27;100296.14;;;19.16;68.56
43281;BME280;62175;49.416;8.690;2022-10-16T01:39:58;100294.43;;;19.12;68.74
43281;BME280;62175;49.416;8.690;2022-10-16T01:42:31;100296.07;;;19.35;68.53
43281;BME280;62175;49.416;8.690;2022-10-16T01:45:02;100291.50;;;19.13;68.25
43281;BME280;62175;49.416;8.690;2022-10-16T01:47:32;100297.44;;;19.31;68.09
43281;BME280;62175;49.416;8.690;2022-10-16T01:50:02;100298.03;;;18.87;68.16
43281;BME280;62175;49.416;8.690;2022-10-16T01:52:33;100295.41;;;19.42;68.05
43281;BME280;62175;49.416;8.690;2022-10-16T01:55:03;100299.84;;;19.33;67.84
43281;BME280;62175;49.416;8.690;2022-10-16T01:57:32;100309.71;;;19.27;68.21
43281;BME280;62175;49.416;8.690;2022-10-16T02:00:07;100317.96;;;19.23;67.88
43281;BME280;62175;49.416;8.690;2022-10-16T02:02:36;100321.41;;;19.36;68.04
43281;BME280;62175;49.416;8.690;2022-10-16T02:05:09;100321.09;;;19.23;68.27
43281;BME280;62175;49.416;8.690;2022-10-16T02:07:37;100315.91;;;18.91;68.61
43281;BME280;62175;49.416;8.690;2022-10-16T02:10:04;100309.43;;;19.28;68.30
43281;BME280;62175;49.416;8.690;2022-10-16T02:12:34;100307.11;;;19.45;68.57
43281;BME280;62175;49.416;8.690;2022-10-16T02:15:03;100308.81;;;19.44;68.22
43281;BME280;62175;49.416;8.690;2022-10-16T02:17:31;100310.20;;;19.38;68.51
43281;BME280;62175;49.416;8.690;2022-10-16T02:19:58;100310.78;;;19.13;68.72
43281;BME280;62175;49.416;8.690;2022-10-16T02:22:28;100313.62;;;19.35;68.76
43281;BME280;62175;49.416;8.690;2022-10-16T02:24:59;100313.44;;;19.40;68.02
43281;BME280;62175;49.416;8.690;2022-10-16T02:27:34;100316.74;;;19.43;68.54
43281;BME280;62175;49.416;8.690;2022-10-16T02:30:07;100314.34;;;19.15;68.58
43281;BME280;62175;49.416;8.690;2022-10-16T02:32:39;100315.48;;;19.31;68.37
43281;BME280;62175;49.416;8.690;2022-10-16T02:35:09;100312.21;;;19.11;68.37
43281;BME280;62175;49.416;8.690;2022-10-16T02:37:38;100308.38;;;19.14;68.77
43281;BME280;62175;49.416;8.690;2022-10-16T02:40:08;100301.97;;;19.45;68.66
43281;BME280;62175;49.416;8.690;2022-10-16T02:42:38;100304.15;;;19.29;68.67
43281;BME280;62175;49.416;8.690;2022-10-16T02:45:08;100306.11;;;19.10;68.46
43281;BME280;62175;49.416;8.690;2022-10-16T02:47:36;100307.81;;;19.38;68.82
43281;BME280;62175;49.416;8.690;2022-10-16T02:50:04;100304.69;;;19.18;68.80
43281;BME280;62175;49.416;8.690;2022-10-16T02:52:31;100302.28;;;19.10;68.74
43281;BME280;62175;49.416;8.690;2022-10-16T02:54:58;100299.00;;;19.09;69.24
43281;BME280;62175;49.416;8.690;2022-10-16T02:57:25;100298.56;;;19.09;68.62
43281;BME280;62175;49.416;8.690;2022-10-16T02:59:52;100298.52;;;19.05;68.95
43281;BME280;62175;49.416;8.690;2022-10-16T03:02:20;100302.75;;;19.27;69.04
43281;BME280;62175;49.416;8.690;2022-10-16T03:04:47;100311.76;;;19.22;69.11
43281;BME280;62175;49.416;8.690;2022-10-16T03:07:14;100318.27;;;19.21;68.84
43281;BME280;62175;49.416;8.690;2022-10-16T03:09:41;100323.96;;;19.27;69.09
43281;BME280;62175;49.416;8.690;2022-10-16T03:12:08;100328.44;;;19.23;69.19
43281;BME280;62175;49.416;8.690;2022-10-16T03:14:35;100329.02;;;19.25;68.96
43281;BME280;62175;49.416;8.690;2022-10-16T03:17:02;100325.23;;;19.33;68.89
43281;BME280;62175;49.416;8.690;2022-10-16T03:19:29;100321.78;;;19.32;68.17
43281;BME280;62175;49.416;8.690;2022-10-16T03:21:56;100318.64;;;19.13;68.88
43281;BME280;62175;49.416;8.690;2022-10-16T03:24:24;100315.83;;;19.19;68.62
43281;BME280;62175;49.416;8.690;2022-10-16T03:26:50;100320.37;;;18.73;69.13
43281;BME280;62175;49.416;8.690;2022-10-16T03:29:17;100318.36;;;19.27;68.92
43281;BME280;62175;49.416;8.690;2022-10-16T03:31:44;100312.81;;;19.12;69.47
43281;BME280;62175;49.416;8.690;2022-10-16T03:34:11;100314.16;;;18.99;69.38
43281;BME280;62175;49.416;8.690;2022-10-16T03:36:38;100312.78;;;19.24;69.31
43281;BME280;62175;49.416;8.690;2022-10-16T03:39:05;100308.34;;;18.92;70.05
43281;BME280;62175;49.416;8.690;2022-10-16T03:41:32;100300.07;;;19.14;69.73
43281;BME280;62175;49.416;8.690;2022-10-16T03:43:59;100297.99;;;18.63;69.04
43281;BME280;62175;49.416;8.690;2022-10-16T03:46:27;100302.54;;;18.95;69.34
43281;BME280;62175;49.416;8.690;2022-10-16T03:48:54;100310.29;;;18.63;68.92
43281;BME280;62175;49.416;8.690;2022-10-16T03:51:21;100305.91;;;19.11;69.10
43281;BME280;62175;49.416;8.690;2022-10-16T03:53:48;100309.58;;;19.24;69.44
43281;BME280;62175;49.416;8.690;2022-10-16T03:56:15;100314.96;;;18.93;69.01
43281;BME280;62175;49.416;8.690;2022-10-16T03:58:42;100316.01;;;19.24;69.20
43281;BME280;62175;49.416;8.690;2022-10-16T04:01:09;100320.23;;;19.14;68.69
43281;BME280;62175;49.416;8.690;2022-10-16T04:03:36;100321.35;;;19.21;69.15
43281;BME280;62175;49.416;8.690;2022-10-16T04:06:03;100329.95;;;19.21;69.28
43281;BME280;62175;49.416;8.690;2022-10-16T04:08:31;100333.49;;;19.04;68.36
43281;BME280;62175;49.416;8.690;2022-10-16T04:10:57;100338.00;;;19.01;68.93
43281;BME280;62175;49.416;8.690;2022-10-16T04:13:25;100335.58;;;18.99;68.69
43281;BME280;62175;49.416;8.690;2022-10-16T04:15:52;100339.29;;;19.22;68.53
43281;BME280;62175;49.416;8.690;2022-10-16T04:18:18;100342.31;;;19.15;68.74
43281;BME280;62175;49.416;8.690;2022-10-16T04:20:45;100342.58;;;19.25;69.11
43281;BME280;62175;49.416;8.690;2022-10-16T04:23:12;100343.49;;;19.25;68.93
43281;BME280;62175;49.416;8.690;2022-10-16T04:25:40;100337.35;;;19.31;69.12
43281;BME280;62175;49.416;8.690;2022-10-16T04:28:06;100336.48;;;19.38;67.92
43281;BME280;62175;49.416;8.690;2022-10-16T04:30:33;100348.17;;;19.09;69.08
43281;BME280;62175;49.416;8.690;2022-10-16T04:33:00;100350.97;;;19.24;68.69
43281;BME280;62175;49.416;8.690;2022-10-16T04:35:27;100359.22;;;18.87;68.84
43281;BME280;62175;49.416;8.690;2022-10-16T04:37:57;100361.68;;;19.32;68.84
43281;BME280;62175;49.416;8.690;2022-10-16T04:40:24;100355.43;;;19.34;69.29
43281;BME280;62175;49.416;8.690;2022-10-16T04:42:52;100355.49;;;19.33;68.90
43281;BME280;62175;49.416;8.690;2022-10-16T04:45:20;100349.17;;;19.33;68.46
43281;BME280;62175;49.416;8.690;2022-10-16T04:47:47;100345.29;;;19.31;68.80
43281;BME280;62175;49.416;8.690;2022-10-16T04:50:14;100343.67;;;19.01;69.25
43281;BME280;62175;49.416;8.690;2022-10-16T04:52:41;100349.61;;;19.27;68.82
43281;BME280;62175;49.416;8.690;2022-10-16T04:55:08;100352.46;;;19.29;68.79
43281;BME280;62175;49.416;8.690;2022-10-16T04:57:35;100351.29;;;18.92;68.86
43281;BME280;62175;49.416;8.690;2022-10-16T05:00:02;100352.27;;;19.19;68.80
43281;BME280;62175;49.416;8.690;2022-10-16T05:02:29;100353.83;;;19.26;68.59
43281;BME280;62175;49.416;8.690;2022-10-16T05:04:56;100352.30;;;19.16;68.43
43281;BME280;62175;49.416;8.690;2022-10-16T05:07:23;100340.26;;;19.00;69.02
43281;BME280;62175;49.416;8.690;2022-10-16T05:09:51;100330.79;;;18.98;69.22
43281;BME280;62175;49.416;8.690;2022-10-16T05:12:18;100330.90;;;19.25;68.72
43281;BME280;62175;49.416;8.690;2022-10-16T05:14:45;100343.41;;;19.25;68.66
43281;BME280;62175;49.416;8.690;2022-10-16T05:17:12;100347.63;;;19.12;69.53
43281;BME280;62175;49.416;8.690;2022-10-16T05:19:39;100358.12;;;18.96;68.43
43281;BME280;62175;49.416;8.690;2022-10-16T05:22:06;100363.97;;;18.99;68.55
43281;BME280;62175;49.416;8.690;2022-10-16T05:24:33;100358.40;;;19.19;68.26
43281;BME280;62175;49.416;8.690;2022-10-16T05:27:00;100359.70;;;19.17;68.68
43281;BME280;62175;49.416;8.690;2022-10-16T05:29:27;100353.79;;;19.19;68.57
43281;BME280;62175;49.416;8.690;2022-10-16T05:31:54;100349.50;;;19.22;68.75
43281;BME280;62175;49.416;8.690;2022-10-16T05:34:21;100340.01;;;19.27;69.08
43281;BME280;62175;49.416;8.690;2022-10-16T05:36:48;100339.55;;;19.00;68.99
43281;BME280;62175;49.416;8.690;2022-10-16T05:39:15;100344.74;;;19.17;68.97
43281;BME280;62175;49.416;8.690;2022-10-16T05:41:43;100356.99;;;19.10;69.13
43281;BME280;62175;49.416;8.690;2022-10-16T05:44:10;100344.91;;;18.91;69.03
43281;BME280;62175;49.416;8.690;2022-10-16T05:46:37;100346.15;;;19.18;69.10
43281;BME280;62175;49.416;8.690;2022-10-16T05:49:04;100352.18;;;19.01;68.88
43281;BME280;62175;49.416;8.690;2022-10-16T05:51:31;100358.30;;;19.03;68.57
43281;BME280;62175;49.416;8.690;2022-10-16T05:53:58;100354.79;;;19.17;68.89
43281;BME280;62175;49.416;8.690;2022-10-16T05:56:25;100369.47;;;19.16;68.72
43281;BME280;62175;49.416;8.690;2022-10-16T05:58:52;100370.92;;;18.98;68.89
43281;BME280;62175;49.416;8.690;2022-10-16T06:01:20;100370.21;;;18.97;68.70
43281;BME280;62175;49.416;8.690;2022-10-16T06:03:47;100386.55;;;19.14;68.19
43281;BME280;62175;49.416;8.690;2022-10-16T06:06:16;100383.64;;;19.18;68.82
43281;BME280;62175;49.416;8.690;2022-10-16T06:08:45;100381.74;;;18.96;69.03
43281;BME280;62175;49.416;8.690;2022-10-16T06:11:14;100374.46;;;19.06;69.53
43281;BME280;62175;49.416;8.690;2022-10-16T06:13:42;100380.15;;;18.88;69.37
43281;BME280;62175;49.416;8.690;2022-10-16T06:16:10;100383.95;;;18.92;69.53
43281;BME280;62175;49.416;8.690;2022-10-16T06:18:38;100390.53;;;18.89;70.10
43281;BME280;62175;49.416;8.690;2022-10-16T06:21:08;100392.39;;;19.01;69.08
43281;BME280;62175;49.416;8.690;2022-10-16T06:23:36;100391.63;;;18.75;69.29
43281;BME280;62175;49.416;8.690;2022-10-16T06:26:07;100384.49;;;19.04;68.55
43281;BME280;62175;49.416;8.690;2022-10-16T06:28:35;100377.14;;;18.88;68.66
43281;BME280;62175;49.416;8.690;2022-10-16T06:31:03;100387.63;;;18.96;68.94
43281;BME280;62175;49.416;8.690;2022-10-16T06:33:30;100388.09;;;19.13;69.40
43281;BME280;62175;49.416;8.690;2022-10-16T06:36:00;100387.69;;;19.07;69.07
43281;BME280;62175;49.416;8.690;2022-10-16T06:38:28;100389.28;;;18.92;69.30
43281;BME280;62175;49.416;8.690;2022-10-16T06:40:55;100398.34;;;19.04;69.64
43281;BME280;62175;49.416;8.690;2022-10-16T06:43:23;100399.20;;;18.94;69.59
43281;BME280;62175;49.416;8.690;2022-10-16T06:45:51;100400.50;;;18.58;69.19
43281;BME280;62175;49.416;8.690;2022-10-16T06:48:19;100402.07;;;19.24;68.85
43281;BME280;62175;49.416;8.690;2022-10-16T06:50:55;100413.86;;;19.31;68.71
43281;BME280;62175;49.416;8.690;2022-10-16T06:53:23;100417.38;;;18.93;68.75
43281;BME280;62175;49.416;8.690;2022-10-16T06:55:50;100413.56;;;19.27;68.91
43281;BME280;62175;49.416;8.690;2022-10-16T06:58:17;100413.59;;;19.30;68.57
43281;BME280;62175;49.416;8.690;2022-10-16T07:00:45;100413.83;;;19.04;69.26
43281;BME280;62175;49.416;8.690;2022-10-16T07:03:13;100415.88;;;19.33;68.56
43281;BME280;62175;49.416;8.690;2022-10-16T07:05:42;100424.99;;;19.11;68.62
43281;BME280;62175;49.416;8.690;2022-10-16T07:08:09;100436.26;;;18.73;68.34
43281;BME280;62175;49.416;8.690;2022-10-16T07:10:37;100437.90;;;19.27;69.09
43281;BME280;62175;49.416;8.690;2022-10-16T07:13:04;100438.85;;;19.28;68.61
43281;BME280;62175;49.416;8.690;2022-10-16T07:15:31;100446.22;;;19.27;68.65
43281;BME280;62175;49.416;8.690;2022-10-16T07:17:58;100451.13;;;18.79;68.70
43281;BME280;62175;49.416;8.690;2022-10-16T07:20:25;100457.04;;;19.36;68.64
43281;BME280;62175;49.416;8.690;2022-10-16T07:22:52;100470.83;;;19.26;68.80
43281;BME280;62175;49.416;8.690;2022-10-16T07:25:20;100472.26;;;18.82;69.13
43281;BME280;62175;49.416;8.690;2022-10-16T07:27:46;100481.28;;;19.15;69.23
43281;BME280;62175;49.416;8.690;2022-10-16T07:30:14;100481.61;;;19.04;69.20
43281;BME280;62175;49.416;8.690;2022-10-16T07:32:41;100475.87;;;19.41;68.79
43281;BME280;62175;49.416;8.690;2022-10-16T07:35:08;100474.10;;;19.43;69.00
43281;BME280;62175;49.416;8.690;2022-10-16T07:37:34;100483.32;;;19.31;68.97
43281;BME280;62175;49.416;8.690;2022-10-16T07:40:02;100487.77;;;19.30;69.14
43281;BME280;62175;49.416;8.690;2022-10-16T07:42:28;100490.67;;;19.40;68.91
43281;BME280;62175;49.416;8.690;2022-10-16T07:44:55;100490.36;;;19.44;68.85
43281;BME280;62175;49.416;8.690;2022-10-16T07:47:22;100500.54;;;19.59;69.37
43281;BME280;62175;49.416;8.690;2022-10-16T07:49:49;100505.93;;;19.38;69.29
43281;BME280;62175;49.416;8.690;2022-10-16T07:52:16;100509.96;;;19.39;68.86
43281;BME280;62175;49.416;8.690;2022-10-16T07:54:43;100513.17;;;19.34;68.99
43281;BME280;62175;49.416;8.690;2022-10-16T07:57:10;100513.38;;;19.38;69.23
43281;BME280;62175;49.416;8.690;2022-10-16T07:59:37;100514.19;;;19.38;69.18
43281;BME280;62175;49.416;8.690;2022-10-16T08:02:04;100512.32;;;19.38;69.03
43281;BME280;62175;49.416;8.690;2022-10-16T08:04:31;100517.86;;;19.27;69.01
43281;BME280;62175;49.416;8.690;2022-10-16T08:06:58;100513.43;;;19.22;69.12
43281;BME280;62175;49.416;8.690;2022-10-16T08:09:25;100514.73;;;19.51;68.97
43281;BME280;62175;49.416;8.690;2022-10-16T08:11:52;100509.54;;;19.25;69.06
43281;BME280;62175;49.416;8.690;2022-10-16T08:14:19;100516.68;;;19.52;69.33
43281;BME280;62175;49.416;8.690;2022-10-16T08:16:46;100522.75;;;19.33;68.99
43281;BME280;62175;49.416;8.690;2022-10-16T08:19:13;100521.43;;;19.47;69.16
43281;BME280;62175;49.416;8.690;2022-10-16T08:21:40;100522.38;;;19.19;69.31
43281;BME280;62175;49.416;8.690;2022-10-16T08:24:07;100530.14;;;19.23;69.18
43281;BME280;62175;49.416;8.690;2022-10-16T08:26:34;100537.41;;;19.52;69.06
43281;BME280;62175;49.416;8.690;2022-10-16T08:29:01;100537.76;;;19.33;68.93
43281;BME280;62175;49.416;8.690;2022-10-16T08:31:28;100536.53;;;19.33;68.80
43281;BME280;62175;49.416;8.690;2022-10-16T08:33:55;100531.75;;;19.52;68.90
43281;BME280;62175;49.416;8.690;2022-10-16T08:36:22;100529.82;;;19.30;68.96
43281;BME280;62175;49.416;8.690;2022-10-16T08:38:50;100536.10;;;19.41;69.07
43281;BME280;62175;49.416;8.690;2022-10-16T08:41:59;100540.79;;;19.34;68.96
43281;BME280;62175;49.416;8.690;2022-10-16T08:44:57;100541.97;;;19.61;68.95
43281;BME280;62175;49.416;8.690;2022-10-16T08:47:35;100543.61;;;19.10;69.02
43281;BME280;62175;49.416;8.690;2022-10-16T08:50:10;100542.81;;;19.59;69.10
43281;BME280;62175;49.416;8.690;2022-10-16T08:52:41;100548.20;;;19.10;69.34
43281;BME280;62175;49.416;8.690;2022-10-16T08:55:17;100551.30;;;19.62;68.92
43281;BME280;62175;49.416;8.690;2022-10-16T08:57:47;100557.02;;;19.80;68.84
43281;BME280;62175;49.416;8.690;2022-10-16T09:00:15;100564.24;;;19.37;69.20
43281;BME280;62175;49.416;8.690;2022-10-16T09:02:48;100570.68;;;19.40;69.48
43281;BME280;62175;49.416;8.690;2022-10-16T09:05:31;100581.96;;;19.18;69.55
43281;BME280;62175;49.416;8.690;2022-10-16T09:08:11;100596.29;;;19.15;69.42
43281;BME280;62175;49.416;8.690;2022-10-16T09:10:51;100621.15;;;19.66;69.41
43281;BME280;62175;49.416;8.690;2022-10-16T09:13:27;100655.22;;;19.53;69.07
43281;BME280;62175;49.416;8.690;2022-10-16T09:16:02;100668.37;;;19.16;69.71
43281;BME280;62175;49.416;8.690;2022-10-16T09:18:41;100643.99;;;19.31;68.46
43281;BME280;62175;49.416;8.690;2022-10-16T09:21:18;100641.95;;;19.66;68.47
43281;BME280;62175;49.416;8.690;2022-10-16T09:23:47;100642.66;;;19.49;67.80
43281;BME280;62175;49.416;8.690;2022-10-16T09:26:15;100635.18;;;19.78;67.35
43281;BME280;62175;49.416;8.690;2022-10-16T09:28:43;100634.87;;;19.40;67.48
43281;BME280;62175;49.416;8.690;2022-10-16T09:31:15;100635.43;;;19.60;67.84
43281;BME280;62175;49.416;8.690;2022-10-16T09:33:48;100636.72;;;19.62;67.15
43281;BME280;62175;49.416;8.690;2022-10-16T09:36:18;100636.60;;;19.84;67.24
43281;BME280;62175;49.416;8.690;2022-10-16T09:38:47;100634.34;;;19.79;67.26
43281;BME280;62175;49.416;8.690;2022-10-16T09:41:17;100634.30;;;19.27;67.54
43281;BME280;62175;49.416;8.690;2022-10-16T09:43:50;100633.91;;;19.77;67.73
43281;BME280;62175;49.416;8.690;2022-10-16T09:46:25;100633.86;;;19.23;68.09
43281;BME280;62175;49.416;8.690;2022-10-16T09:48:56;100636.04;;;19.31;68.11
43281;BME280;62175;49.416;8.690;2022-10-16T09:51:27;100634.43;;;19.25;68.31
43281;BME280;62175;49.416;8.690;2022-10-16T09:53:56;100628.54;;;19.52;68.54
43281;BME280;62175;49.416;8.690;2022-10-16T09:56:25;100631.89;;;19.62;68.70
43281;BME280;62175;49.416;8.690;2022-10-16T09:58:55;100630.70;;;19.24;68.67
43281;BME280;62175;49.416;8.690;2022-10-16T10:01:27;100632.56;;;19.57;68.89
43281;BME280;62175;49.416;8.690;2022-10-16T10:03:57;100634.29;;;19.74;68.90
43281;BME280;62175;49.416;8.690;2022-10-16T10:06:28;100639.01;;;19.83;68.90
43281;BME280;62175;49.416;8.690;2022-10-16T10:08:58;100636.93;;;19.79;68.58
43281;BME280;62175;49.416;8.690;2022-10-16T10:11:48;100635.28;;;19.24;68.70
43281;BME280;62175;49.416;8.690;2022-10-16T10:14:20;100642.47;;;19.81;68.36
43281;BME280;62175;49.416;8.690;2022-10-16T10:16:48;100640.35;;;19.74;68.18
43281;BME280;62175;49.416;8.690;2022-10-16T10:19:17;100641.63;;;19.29;67.78
43281;BME280;62175;49.416;8.690;2022-10-16T10:21:44;100644.38;;;19.25;67.01
43281;BME280;62175;49.416;8.690;2022-10-16T10:24:12;100648.21;;;19.47;67.14
43281;BME280;62175;49.416;8.690;2022-10-16T10:26:48;100647.13;;;19.30;66.66
43281;BME280;62175;49.416;8.690;2022-10-16T10:29:25;100645.25;;;19.62;66.79
43281;BME280;62175;49.416;8.690;2022-10-16T10:32:03;100635.48;;;19.54;66.66
43281;BME280;62175;49.416;8.690;2022-10-16T10:34:44;100631.31;;;19.46;67.09
43281;BME280;62175;49.416;8.690;2022-10-16T10:37:29;100629.01;;;19.37;66.89
43281;BME280;62175;49.416;8.690;2022-10-16T10:40:04;100626.13;;;19.46;67.11
43281;BME280;62175;49.416;8.690;2022-10-16T10:42:41;100625.71;;;19.47;67.56
43281;BME280;62175;49.416;8.690;2022-10-16T10:45:19;100627.60;;;19.40;67.82
43281;BME280;62175;49.416;8.690;2022-10-16T10:48:01;100626.29;;;19.88;67.37
43281;BME280;62175;49.416;8.690;2022-10-16T10:50:36;100626.25;;;19.73;67.71
43281;BME280;62175;49.416;8.690;2022-10-16T10:53:14;100628.01;;;19.96;68.04
43281;BME280;62175;49.416;8.690;2022-10-16T10:55:51;100632.50;;;19.79;67.74
43281;BME280;62175;49.416;8.690;2022-10-16T10:58:49;100628.21;;;19.42;67.61
43281;BME280;62175;49.416;8.690;2022-10-16T11:01:25;100624.42;;;19.79;67.13
43281;BME280;62175;49.416;8.690;2022-10-16T11:04:09;100622.67;;;19.62;67.34
43281;BME280;62175;49.416;8.690;2022-10-16T11:06:45;100623.27;;;19.54;67.49
43281;BME280;62175;49.416;8.690;2022-10-16T11:09:17;100618.47;;;19.96;66.87
43281;BME280;62175;49.416;8.690;2022-10-16T11:11:49;100610.44;;;19.51;67.27
43281;BME280;62175;49.416;8.690;2022-10-16T11:14:19;100613.81;;;19.68;66.86
43281;BME280;62175;49.416;8.690;2022-10-16T11:16:54;100611.06;;;19.81;67.31
43281;BME280;62175;49.416;8.690;2022-10-16T11:19:31;100619.41;;;19.80;67.07
43281;BME280;62175;49.416;8.690;2022-10-16T11:22:09;100631.05;;;19.93;66.78
43281;BME280;62175;49.416;8.690;2022-10-16T11:24:46;100630.54;;;20.05;66.66
43281;BME280;62175;49.416;8.690;2022-10-16T11:27:18;100630.66;;;19.82;66.66
43281;BME280;62175;49.416;8.690;2022-10-16T11:29:51;100628.08;;;20.26;65.35
43281;BME280;62175;49.416;8.690;2022-10-16T11:32:25;100627.31;;;20.03;66.40
43281;BME280;62175;49.416;8.690;2022-10-16T11:34:59;100628.90;;;20.03;66.66
43281;BME280;62175;49.416;8.690;2022-10-16T11:37:32;100626.04;;;20.04;66.72
43281;BME280;62175;49.416;8.690;2022-10-16T11:40:14;100619.54;;;19.99;66.46
43281;BME280;62175;49.416;8.690;2022-10-16T11:42:48;100611.57;;;20.14;67.24
43281;BME280;62175;49.416;8.690;2022-10-16T11:45:26;100602.15;;;20.22;66.76
43281;BME280;62175;49.416;8.690;2022-10-16T11:48:01;100600.65;;;20.25;66.15
43281;BME280;62175;49.416;8.690;2022-10-16T11:50:36;100604.84;;;20.37;66.85
43281;BME280;62175;49.416;8.690;2022-10-16T11:53:13;100608.77;;;20.47;65.87
43281;BME280;62175;49.416;8.690;2022-10-16T11:55:43;100605.83;;;20.65;65.35
43281;BME280;62175;49.416;8.690;2022-10-16T11:58:19;100608.43;;;20.41;65.24
43281;BME280;62175;49.416;8.690;2022-10-16T12:00:54;100614.15;;;20.42;65.23
43281;BME280;62175;49.416;8.690;2022-10-16T12:03:27;100620.44;;;20.25;66.02
43281;BME280;62175;49.416;8.690;2022-10-16T12:06:06;100621.07;;;20.13;66.48
43281;BME280;62175;49.416;8.690;2022-10-16T12:08:40;100620.47;;;20.36;66.37
43281;BME280;62175;49.416;8.690;2022-10-16T12:11:23;100619.71;;;20.09;65.83
43281;BME280;62175;49.416;8.690;2022-10-16T12:13:50;100618.52;;;20.20;66.26
43281;BME280;62175;49.416;8.690;2022-10-16T12:16:23;100620.05;;;20.28;65.34
43281;BME280;62175;49.416;8.690;2022-10-16T12:19:03;100619.18;;;20.36;64.47
43281;BME280;62175;49.416;8.690;2022-10-16T12:21:36;100616.80;;;20.36;64.98
43281;BME280;62175;49.416;8.690;2022-10-16T12:24:05;100615.24;;;20.22;65.54
43281;BME280;62175;49.416;8.690;2022-10-16T12:26:33;100615.64;;;20.29;66.12
43281;BME280;62175;49.416;8.690;2022-10-16T12:29:14;100612.83;;;20.27;66.72
43281;BME280;62175;49.416;8.690;2022-10-16T12:31:49;100613.11;;;20.13;67.20
43281;BME280;62175;49.416;8.690;2022-10-16T12:34:22;100607.90;;;20.02;67.88
43281;BME280;62175;49.416;8.690;2022-10-16T12:36:51;100602.87;;;19.67;68.04
43281;BME280;62175;49.416;8.690;2022-10-16T12:39:22;100600.69;;;19.93;68.13
43281;BME280;62175;49.416;8.690;2022-10-16T12:42:01;100603.02;;;19.87;68.55
43281;BME280;62175;49.416;8.690;2022-10-16T12:44:33;100597.47;;;19.90;68.62
43281;BME280;62175;49.416;8.690;2022-10-16T12:47:01;100597.99;;;19.67;68.46
43281;BME280;62175;49.416;8.690;2022-10-16T12:49:32;100596.96;;;19.86;68.59
43281;BME280;62175;49.416;8.690;2022-10-16T12:52:03;100595.28;;;19.79;69.17
43281;BME280;62175;49.416;8.690;2022-10-16T12:54:34;100596.79;;;19.78;68.92
43281;BME280;62175;49.416;8.690;2022-10-16T12:57:18;100591.80;;;19.82;69.00
43281;BME280;62175;49.416;8.690;2022-10-16T12:59:57;100595.43;;;19.75;69.22
43281;BME280;62175;49.416;8.690;2022-10-16T13:02:44;100594.87;;;19.81;68.77
43281;BME280;62175;49.416;8.690;2022-10-16T13:05:25;100594.00;;;19.89;68.70
43281;BME280;62175;49.416;8.690;2022-10-16T13:08:00;100592.68;;;19.90;68.46